Aviation Digital Data Service (ADDS)

Output produced by METARs form (0723 UTC 24 April 2014)
found at http://aviationweather.gov/adds/metars/
 
KGON 240544Z 2406/2506 31014G22KT P6SM SKC 
     FM241400 32024G38KT P6SM FEW050 
     FM242200 32019G32KT P6SM SKC 
     FM250000 33012KT P6SM SKC